logo
Rechercher aéroport 
image banner adimage banner adimage banner ad
image banner ad

O05 - Rogers Field

Situé à Chester, United States

ICAO - O05, IATA -

Données fournies par Airmate  

Information générale

Coordonnées: N40°16'56" W121°14'28"
Élévation : 4534 feet MSL.
Variation magnétique : 17° East
Voir autres Aéroports à California

Données opérationnelles

Special qualification required
Heure actuelle UTC:
Heure actuelle locale:
Météo à : KSVE - Susanville Muni ( 58 km )
METAR: KSVE 011815Z AUTO 08006KT 10SM CLR 18/02 A3006 RMK AO2
Voir NOTAMs / SUP AIP / TFR affectant cet aéroport [VIEW]
Fréquences de communication: [VIEW]

Pistes:

Identifiant RWYQFULongueur (ft)Largeur (ft)SurfaceLDA (ft)
16173°5020100ASPH
34353°5020100ASPH

Coordonnées de l'aéroport

Adresse: Chester United States

Vue satellite de O05